sensor_id;sensor_type;location;lat;lon;timestamp;pressure;altitude;pressure_sealevel;temperature;humidity
72909;BME280;61051;62.624;17.950;2023-05-20T00:00:02;102752.39;;;4.47;79.60
72909;BME280;61051;62.624;17.950;2023-05-20T00:02:30;102753.61;;;4.53;79.94
72909;BME280;61051;62.624;17.950;2023-05-20T00:04:58;102752.95;;;4.56;78.94
72909;BME280;61051;62.624;17.950;2023-05-20T00:07:27;102755.11;;;4.53;79.88
72909;BME280;61051;62.624;17.950;2023-05-20T00:09:55;102756.94;;;4.43;79.94
72909;BME280;61051;62.624;17.950;2023-05-20T00:12:24;102756.60;;;4.40;80.42
72909;BME280;61051;62.624;17.950;2023-05-20T00:14:52;102754.59;;;4.36;79.40
72909;BME280;61051;62.624;17.950;2023-05-20T00:17:21;102759.90;;;4.30;79.95
72909;BME280;61051;62.624;17.950;2023-05-20T00:19:51;102762.74;;;4.20;80.92
72909;BME280;61051;62.624;17.950;2023-05-20T00:22:19;102757.48;;;4.13;80.70
72909;BME280;61051;62.624;17.950;2023-05-20T00:24:48;102759.35;;;4.21;81.02
72909;BME280;61051;62.624;17.950;2023-05-20T00:27:18;102759.76;;;4.11;81.11
72909;BME280;61051;62.624;17.950;2023-05-20T00:29:47;102758.95;;;4.00;80.88
72909;BME280;61051;62.624;17.950;2023-05-20T00:32:17;102757.16;;;3.97;80.98
72909;BME280;61051;62.624;17.950;2023-05-20T00:34:55;102760.32;;;4.02;82.46
72909;BME280;61051;62.624;17.950;2023-05-20T00:37:23;102765.50;;;3.98;83.21
72909;BME280;61051;62.624;17.950;2023-05-20T00:39:51;102767.85;;;3.90;82.78
72909;BME280;61051;62.624;17.950;2023-05-20T00:42:20;102771.58;;;3.89;82.16
72909;BME280;61051;62.624;17.950;2023-05-20T00:44:49;102770.42;;;3.87;80.95
72909;BME280;61051;62.624;17.950;2023-05-20T00:47:19;102773.99;;;3.79;81.54
72909;BME280;61051;62.624;17.950;2023-05-20T00:49:51;102774.15;;;3.81;82.37
72909;BME280;61051;62.624;17.950;2023-05-20T00:52:19;102774.54;;;3.78;82.47
72909;BME280;61051;62.624;17.950;2023-05-20T00:54:50;102772.31;;;3.75;82.21
72909;BME280;61051;62.624;17.950;2023-05-20T00:57:19;102770.81;;;3.69;83.20
72909;BME280;61051;62.624;17.950;2023-05-20T00:59:48;102770.71;;;3.74;83.18
72909;BME280;61051;62.624;17.950;2023-05-20T01:02:18;102767.22;;;3.80;83.25
72909;BME280;61051;62.624;17.950;2023-05-20T01:04:47;102764.61;;;3.86;83.25
72909;BME280;61051;62.624;17.950;2023-05-20T01:07:16;102762.97;;;3.75;84.00
72909;BME280;61051;62.624;17.950;2023-05-20T01:09:46;102765.25;;;3.71;84.25
72909;BME280;61051;62.624;17.950;2023-05-20T01:12:16;102768.80;;;3.59;83.79
72909;BME280;61051;62.624;17.950;2023-05-20T01:14:48;102775.59;;;3.64;83.21
72909;BME280;61051;62.624;17.950;2023-05-20T01:17:19;102774.23;;;3.54;83.53
72909;BME280;61051;62.624;17.950;2023-05-20T01:19:49;102769.25;;;3.59;83.56
72909;BME280;61051;62.624;17.950;2023-05-20T01:22:23;102771.84;;;3.71;84.14
72909;BME280;61051;62.624;17.950;2023-05-20T01:24:52;102772.40;;;3.69;83.72
72909;BME280;61051;62.624;17.950;2023-05-20T01:27:21;102772.77;;;3.69;83.96
72909;BME280;61051;62.624;17.950;2023-05-20T01:29:51;102773.85;;;3.74;84.24
72909;BME280;61051;62.624;17.950;2023-05-20T01:32:23;102777.05;;;3.70;84.46
72909;BME280;61051;62.624;17.950;2023-05-20T01:34:53;102776.95;;;3.49;84.42
72909;BME280;61051;62.624;17.950;2023-05-20T01:37:23;102775.70;;;3.59;83.84
72909;BME280;61051;62.624;17.950;2023-05-20T01:39:53;102774.92;;;3.61;83.70
72909;BME280;61051;62.624;17.950;2023-05-20T01:42:24;102771.77;;;3.55;84.06
72909;BME280;61051;62.624;17.950;2023-05-20T01:44:53;102769.36;;;3.51;83.57
72909;BME280;61051;62.624;17.950;2023-05-20T01:47:22;102772.60;;;3.46;83.98
72909;BME280;61051;62.624;17.950;2023-05-20T01:49:51;102776.07;;;3.44;83.81
72909;BME280;61051;62.624;17.950;2023-05-20T01:52:22;102781.44;;;3.32;83.02
72909;BME280;61051;62.624;17.950;2023-05-20T01:54:51;102781.01;;;3.35;82.54
72909;BME280;61051;62.624;17.950;2023-05-20T01:57:21;102781.83;;;3.39;83.40
72909;BME280;61051;62.624;17.950;2023-05-20T01:59:50;102780.51;;;3.37;84.14
72909;BME280;61051;62.624;17.950;2023-05-20T02:02:21;102783.69;;;3.50;84.83
72909;BME280;61051;62.624;17.950;2023-05-20T02:04:52;102789.68;;;3.53;84.36
72909;BME280;61051;62.624;17.950;2023-05-20T02:07:21;102792.19;;;3.56;84.06
72909;BME280;61051;62.624;17.950;2023-05-20T02:09:51;102796.37;;;3.55;84.86
72909;BME280;61051;62.624;17.950;2023-05-20T02:12:20;102789.94;;;3.63;83.40
72909;BME280;61051;62.624;17.950;2023-05-20T02:14:49;102788.63;;;3.51;84.90
72909;BME280;61051;62.624;17.950;2023-05-20T02:17:19;102788.81;;;3.55;85.58
72909;BME280;61051;62.624;17.950;2023-05-20T02:19:48;102790.85;;;3.51;85.84
72909;BME280;61051;62.624;17.950;2023-05-20T02:22:18;102793.06;;;3.60;85.69
72909;BME280;61051;62.624;17.950;2023-05-20T02:24:47;102792.29;;;3.85;85.23
72909;BME280;61051;62.624;17.950;2023-05-20T02:27:15;102788.34;;;3.71;83.91
72909;BME280;61051;62.624;17.950;2023-05-20T02:29:44;102785.16;;;3.79;84.34
72909;BME280;61051;62.624;17.950;2023-05-20T02:32:12;102780.59;;;3.73;85.12
72909;BME280;61051;62.624;17.950;2023-05-20T02:34:41;102783.76;;;3.84;85.94
72909;BME280;61051;62.624;17.950;2023-05-20T02:37:10;102786.83;;;3.86;84.86
72909;BME280;61051;62.624;17.950;2023-05-20T02:39:39;102792.03;;;3.91;85.10
72909;BME280;61051;62.624;17.950;2023-05-20T02:42:07;102795.23;;;4.13;84.88
72909;BME280;61051;62.624;17.950;2023-05-20T02:44:36;102796.78;;;4.07;84.54
72909;BME280;61051;62.624;17.950;2023-05-20T02:47:05;102798.76;;;4.13;83.79
72909;BME280;61051;62.624;17.950;2023-05-20T02:49:33;102799.58;;;4.23;83.34
72909;BME280;61051;62.624;17.950;2023-05-20T02:52:02;102798.13;;;4.26;84.18
72909;BME280;61051;62.624;17.950;2023-05-20T02:54:30;102793.30;;;4.38;84.88
72909;BME280;61051;62.624;17.950;2023-05-20T02:56:59;102794.24;;;4.40;85.01
72909;BME280;61051;62.624;17.950;2023-05-20T02:59:28;102791.42;;;4.48;84.75
72909;BME280;61051;62.624;17.950;2023-05-20T03:01:57;102794.18;;;4.52;83.87
72909;BME280;61051;62.624;17.950;2023-05-20T03:04:25;102794.33;;;4.59;83.78
72909;BME280;61051;62.624;17.950;2023-05-20T03:06:54;102799.34;;;4.78;82.08
72909;BME280;61051;62.624;17.950;2023-05-20T03:09:23;102801.69;;;4.78;82.56
72909;BME280;61051;62.624;17.950;2023-05-20T03:11:53;102806.84;;;4.95;83.16
72909;BME280;61051;62.624;17.950;2023-05-20T03:14:22;102811.93;;;5.01;82.11
72909;BME280;61051;62.624;17.950;2023-05-20T03:16:51;102815.90;;;5.09;82.97
72909;BME280;61051;62.624;17.950;2023-05-20T03:19:19;102812.40;;;5.09;82.43
72909;BME280;61051;62.624;17.950;2023-05-20T03:21:48;102809.94;;;5.19;81.27
72909;BME280;61051;62.624;17.950;2023-05-20T03:24:18;102811.31;;;5.46;81.26
72909;BME280;61051;62.624;17.950;2023-05-20T03:26:53;102804.40;;;5.49;81.20
72909;BME280;61051;62.624;17.950;2023-05-20T03:29:22;102806.77;;;5.70;81.39
72909;BME280;61051;62.624;17.950;2023-05-20T03:31:52;102813.28;;;5.62;80.49
72909;BME280;61051;62.624;17.950;2023-05-20T03:34:20;102815.31;;;5.65;79.99
72909;BME280;61051;62.624;17.950;2023-05-20T03:36:50;102814.51;;;5.85;79.91
72909;BME280;61051;62.624;17.950;2023-05-20T03:39:19;102821.68;;;6.05;79.02
72909;BME280;61051;62.624;17.950;2023-05-20T03:41:48;102825.51;;;6.13;78.69
72909;BME280;61051;62.624;17.950;2023-05-20T03:44:17;102823.77;;;6.17;78.35
72909;BME280;61051;62.624;17.950;2023-05-20T03:46:46;102819.82;;;6.34;76.76
72909;BME280;61051;62.624;17.950;2023-05-20T03:49:15;102823.43;;;6.39;76.06
72909;BME280;61051;62.624;17.950;2023-05-20T03:51:44;102821.07;;;6.67;74.12
72909;BME280;61051;62.624;17.950;2023-05-20T03:54:13;102825.91;;;6.81;73.50
72909;BME280;61051;62.624;17.950;2023-05-20T03:56:42;102825.14;;;6.98;71.93
72909;BME280;61051;62.624;17.950;2023-05-20T03:59:10;102827.16;;;7.10;72.01
72909;BME280;61051;62.624;17.950;2023-05-20T04:03:14;102828.08;;;7.38;71.42
72909;BME280;61051;62.624;17.950;2023-05-20T04:05:42;102824.41;;;7.54;70.44
72909;BME280;61051;62.624;17.950;2023-05-20T04:08:10;102830.93;;;7.87;70.62
72909;BME280;61051;62.624;17.950;2023-05-20T04:10:40;102827.90;;;7.96;71.47
72909;BME280;61051;62.624;17.950;2023-05-20T04:13:09;102826.86;;;8.04;70.59
72909;BME280;61051;62.624;17.950;2023-05-20T04:15:39;102825.54;;;8.29;68.87
72909;BME280;61051;62.624;17.950;2023-05-20T04:18:08;102828.92;;;8.50;66.53
72909;BME280;61051;62.624;17.950;2023-05-20T04:20:37;102830.34;;;8.66;67.52
72909;BME280;61051;62.624;17.950;2023-05-20T04:23:05;102832.96;;;8.79;66.95
72909;BME280;61051;62.624;17.950;2023-05-20T04:25:34;102833.50;;;8.94;68.48
72909;BME280;61051;62.624;17.950;2023-05-20T04:28:02;102838.07;;;9.00;68.63
72909;BME280;61051;62.624;17.950;2023-05-20T04:30:31;102840.04;;;8.99;69.40
72909;BME280;61051;62.624;17.950;2023-05-20T04:32:59;102844.54;;;8.91;68.98
72909;BME280;61051;62.624;17.950;2023-05-20T04:35:28;102837.96;;;8.96;67.00
72909;BME280;61051;62.624;17.950;2023-05-20T04:37:56;102835.04;;;8.96;67.06
72909;BME280;61051;62.624;17.950;2023-05-20T04:40:24;102838.03;;;9.40;65.23
72909;BME280;61051;62.624;17.950;2023-05-20T04:42:53;102842.83;;;9.68;63.70
72909;BME280;61051;62.624;17.950;2023-05-20T04:45:21;102846.01;;;9.83;63.55
72909;BME280;61051;62.624;17.950;2023-05-20T04:47:50;102844.49;;;9.80;63.73
72909;BME280;61051;62.624;17.950;2023-05-20T04:50:19;102847.98;;;9.91;62.67
72909;BME280;61051;62.624;17.950;2023-05-20T04:52:47;102852.79;;;10.11;63.03
72909;BME280;61051;62.624;17.950;2023-05-20T04:55:17;102848.36;;;10.25;61.64
72909;BME280;61051;62.624;17.950;2023-05-20T04:57:45;102848.78;;;10.41;61.34
72909;BME280;61051;62.624;17.950;2023-05-20T05:00:15;102847.39;;;10.48;60.86
72909;BME280;61051;62.624;17.950;2023-05-20T05:02:43;102851.94;;;10.68;59.96
72909;BME280;61051;62.624;17.950;2023-05-20T05:05:12;102858.95;;;10.83;59.86
72909;BME280;61051;62.624;17.950;2023-05-20T05:07:40;102865.16;;;10.89;58.52
72909;BME280;61051;62.624;17.950;2023-05-20T05:10:10;102869.41;;;10.90;59.01
72909;BME280;61051;62.624;17.950;2023-05-20T05:12:39;102863.76;;;11.28;58.43
72909;BME280;61051;62.624;17.950;2023-05-20T05:15:08;102860.67;;;11.43;57.70
72909;BME280;61051;62.624;17.950;2023-05-20T05:17:37;102853.55;;;11.75;56.04
72909;BME280;61051;62.624;17.950;2023-05-20T05:20:07;102846.53;;;11.99;54.92
72909;BME280;61051;62.624;17.950;2023-05-20T05:22:35;102845.89;;;12.10;53.51
72909;BME280;61051;62.624;17.950;2023-05-20T05:25:04;102847.20;;;12.19;54.64
72909;BME280;61051;62.624;17.950;2023-05-20T05:27:34;102842.10;;;12.53;53.92
72909;BME280;61051;62.624;17.950;2023-05-20T05:30:03;102841.33;;;12.59;53.71
72909;BME280;61051;62.624;17.950;2023-05-20T05:32:32;102849.25;;;12.62;53.88
72909;BME280;61051;62.624;17.950;2023-05-20T05:35:00;102849.72;;;12.62;52.63
72909;BME280;61051;62.624;17.950;2023-05-20T05:37:28;102844.56;;;12.76;53.14
72909;BME280;61051;62.624;17.950;2023-05-20T05:39:56;102843.08;;;12.71;52.88
72909;BME280;61051;62.624;17.950;2023-05-20T05:42:25;102842.73;;;12.96;53.07
72909;BME280;61051;62.624;17.950;2023-05-20T05:44:53;102836.37;;;13.16;53.03
72909;BME280;61051;62.624;17.950;2023-05-20T05:47:21;102835.88;;;13.19;52.20
72909;BME280;61051;62.624;17.950;2023-05-20T05:49:50;102837.27;;;13.29;52.19
72909;BME280;61051;62.624;17.950;2023-05-20T05:52:19;102837.25;;;13.50;51.90
72909;BME280;61051;62.624;17.950;2023-05-20T05:54:48;102837.30;;;13.72;51.16
72909;BME280;61051;62.624;17.950;2023-05-20T05:57:17;102833.83;;;13.87;50.42
72909;BME280;61051;62.624;17.950;2023-05-20T05:59:45;102830.27;;;13.96;49.91
72909;BME280;61051;62.624;17.950;2023-05-20T06:02:14;102837.04;;;14.10;49.52
72909;BME280;61051;62.624;17.950;2023-05-20T06:04:42;102838.09;;;14.16;50.49
72909;BME280;61051;62.624;17.950;2023-05-20T06:07:10;102834.78;;;14.23;48.11
72909;BME280;61051;62.624;17.950;2023-05-20T06:09:38;102834.83;;;14.58;47.48
72909;BME280;61051;62.624;17.950;2023-05-20T06:12:06;102835.77;;;14.60;47.81
72909;BME280;61051;62.624;17.950;2023-05-20T06:14:35;102837.28;;;14.76;47.09
72909;BME280;61051;62.624;17.950;2023-05-20T06:17:03;102836.85;;;14.85;46.88
72909;BME280;61051;62.624;17.950;2023-05-20T06:19:33;102838.64;;;15.03;48.16
72909;BME280;61051;62.624;17.950;2023-05-20T06:22:01;102837.85;;;15.02;47.87
72909;BME280;61051;62.624;17.950;2023-05-20T06:24:29;102840.56;;;15.11;46.24
72909;BME280;61051;62.624;17.950;2023-05-20T06:26:57;102843.92;;;15.31;46.03
72909;BME280;61051;62.624;17.950;2023-05-20T06:29:26;102842.81;;;15.34;45.63
72909;BME280;61051;62.624;17.950;2023-05-20T06:31:54;102840.90;;;15.56;45.28
72909;BME280;61051;62.624;17.950;2023-05-20T06:34:22;102839.33;;;15.79;44.39
72909;BME280;61051;62.624;17.950;2023-05-20T06:36:51;102837.58;;;15.98;43.94
72909;BME280;61051;62.624;17.950;2023-05-20T06:39:20;102839.15;;;16.07;43.64
72909;BME280;61051;62.624;17.950;2023-05-20T06:41:49;102833.51;;;16.08;43.18
72909;BME280;61051;62.624;17.950;2023-05-20T06:44:18;102831.72;;;16.01;43.36
72909;BME280;61051;62.624;17.950;2023-05-20T06:46:51;102833.88;;;16.02;44.09
72909;BME280;61051;62.624;17.950;2023-05-20T06:49:19;102838.01;;;16.04;44.20
72909;BME280;61051;62.624;17.950;2023-05-20T06:51:49;102840.79;;;16.03;44.89
72909;BME280;61051;62.624;17.950;2023-05-20T06:54:18;102845.12;;;16.01;45.32
72909;BME280;61051;62.624;17.950;2023-05-20T06:56:46;102853.73;;;15.56;49.36
72909;BME280;61051;62.624;17.950;2023-05-20T06:59:14;102853.08;;;14.67;52.37
72909;BME280;61051;62.624;17.950;2023-05-20T07:01:42;102850.45;;;14.60;51.21
72909;BME280;61051;62.624;17.950;2023-05-20T07:04:10;102850.29;;;14.94;49.63
72909;BME280;61051;62.624;17.950;2023-05-20T07:06:38;102851.96;;;15.42;47.20
72909;BME280;61051;62.624;17.950;2023-05-20T07:09:07;102853.91;;;15.63;46.60
72909;BME280;61051;62.624;17.950;2023-05-20T07:11:35;102856.41;;;16.12;45.89
72909;BME280;61051;62.624;17.950;2023-05-20T07:14:03;102863.03;;;15.91;46.34
72909;BME280;61051;62.624;17.950;2023-05-20T07:16:31;102862.69;;;15.77;48.04
72909;BME280;61051;62.624;17.950;2023-05-20T07:18:59;102862.40;;;15.76;49.62
72909;BME280;61051;62.624;17.950;2023-05-20T07:21:27;102854.18;;;16.10;47.19
72909;BME280;61051;62.624;17.950;2023-05-20T07:23:56;102856.26;;;16.32;45.36
72909;BME280;61051;62.624;17.950;2023-05-20T07:26:24;102859.42;;;16.59;44.96
72909;BME280;61051;62.624;17.950;2023-05-20T07:28:52;102859.24;;;16.73;45.02
72909;BME280;61051;62.624;17.950;2023-05-20T07:31:20;102863.89;;;16.50;46.00
72909;BME280;61051;62.624;17.950;2023-05-20T07:33:49;102867.78;;;16.06;47.10
72909;BME280;61051;62.624;17.950;2023-05-20T07:36:18;102866.39;;;16.42;46.63
72909;BME280;61051;62.624;17.950;2023-05-20T07:38:48;102865.82;;;16.32;44.84
72909;BME280;61051;62.624;17.950;2023-05-20T07:41:17;102869.77;;;16.23;46.32
72909;BME280;61051;62.624;17.950;2023-05-20T07:43:45;102864.39;;;16.14;46.98
72909;BME280;61051;62.624;17.950;2023-05-20T07:46:13;102857.59;;;16.46;45.29
72909;BME280;61051;62.624;17.950;2023-05-20T07:48:41;102854.60;;;16.90;43.56
72909;BME280;61051;62.624;17.950;2023-05-20T07:51:10;102855.67;;;16.95;43.35
72909;BME280;61051;62.624;17.950;2023-05-20T07:53:38;102856.04;;;16.91;45.46
72909;BME280;61051;62.624;17.950;2023-05-20T07:56:06;102857.85;;;17.00;42.94
72909;BME280;61051;62.624;17.950;2023-05-20T07:58:34;102856.27;;;17.08;43.45
72909;BME280;61051;62.624;17.950;2023-05-20T08:01:03;102854.06;;;17.12;43.19
72909;BME280;61051;62.624;17.950;2023-05-20T08:03:31;102852.74;;;17.16;43.38
72909;BME280;61051;62.624;17.950;2023-05-20T08:05:59;102854.19;;;17.14;44.26
72909;BME280;61051;62.624;17.950;2023-05-20T08:08:28;102854.49;;;17.08;45.13
72909;BME280;61051;62.624;17.950;2023-05-20T08:10:58;102857.96;;;17.21;44.11
72909;BME280;61051;62.624;17.950;2023-05-20T08:13:26;102855.86;;;17.30;44.30
72909;BME280;61051;62.624;17.950;2023-05-20T08:15:54;102859.69;;;17.62;43.16
72909;BME280;61051;62.624;17.950;2023-05-20T08:18:24;102859.94;;;17.86;41.88
72909;BME280;61051;62.624;17.950;2023-05-20T08:20:52;102858.79;;;17.94;41.30
72909;BME280;61051;62.624;17.950;2023-05-20T08:23:20;102855.63;;;18.01;41.18
72909;BME280;61051;62.624;17.950;2023-05-20T08:25:49;102850.65;;;18.18;41.28
72909;BME280;61051;62.624;17.950;2023-05-20T08:28:18;102851.63;;;18.21;40.18
72909;BME280;61051;62.624;17.950;2023-05-20T08:30:46;102856.48;;;18.37;41.45
72909;BME280;61051;62.624;17.950;2023-05-20T08:33:14;102856.36;;;18.02;42.60
72909;BME280;61051;62.624;17.950;2023-05-20T08:35:43;102854.81;;;18.15;42.44
72909;BME280;61051;62.624;17.950;2023-05-20T08:38:12;102857.20;;;18.55;40.80
72909;BME280;61051;62.624;17.950;2023-05-20T08:40:40;102854.53;;;18.85;39.85
72909;BME280;61051;62.624;17.950;2023-05-20T08:43:09;102851.70;;;18.81;40.34
72909;BME280;61051;62.624;17.950;2023-05-20T08:45:38;102852.06;;;18.70;40.50
72909;BME280;61051;62.624;17.950;2023-05-20T08:48:06;102849.56;;;18.70;41.14
72909;BME280;61051;62.624;17.950;2023-05-20T08:50:34;102847.85;;;18.96;41.08
72909;BME280;61051;62.624;17.950;2023-05-20T08:53:03;102849.64;;;19.81;41.25
72909;BME280;61051;62.624;17.950;2023-05-20T08:55:36;102851.82;;;20.11;39.35
72909;BME280;61051;62.624;17.950;2023-05-20T08:58:06;102847.31;;;20.36;38.53
72909;BME280;61051;62.624;17.950;2023-05-20T09:00:35;102842.74;;;20.64;39.02
72909;BME280;61051;62.624;17.950;2023-05-20T09:03:03;102837.23;;;21.09;37.97
72909;BME280;61051;62.624;17.950;2023-05-20T09:05:33;102835.54;;;21.56;36.32
72909;BME280;61051;62.624;17.950;2023-05-20T09:08:04;102841.71;;;21.91;34.84
72909;BME280;61051;62.624;17.950;2023-05-20T09:10:34;102843.02;;;22.13;35.25
72909;BME280;61051;62.624;17.950;2023-05-20T09:13:04;102839.31;;;22.08;32.18
72909;BME280;61051;62.624;17.950;2023-05-20T09:15:35;102832.84;;;22.33;31.56
72909;BME280;61051;62.624;17.950;2023-05-20T09:18:06;102831.76;;;22.20;32.14
72909;BME280;61051;62.624;17.950;2023-05-20T09:20:36;102829.09;;;22.46;30.91
72909;BME280;61051;62.624;17.950;2023-05-20T09:23:06;102829.70;;;22.38;32.56
72909;BME280;61051;62.624;17.950;2023-05-20T09:25:35;102829.02;;;22.50;31.74
72909;BME280;61051;62.624;17.950;2023-05-20T09:28:06;102826.91;;;22.71;31.91
72909;BME280;61051;62.624;17.950;2023-05-20T09:30:34;102826.33;;;22.95;31.62
72909;BME280;61051;62.624;17.950;2023-05-20T09:33:03;102821.64;;;23.16;30.66
72909;BME280;61051;62.624;17.950;2023-05-20T09:35:34;102824.44;;;23.60;31.91
72909;BME280;61051;62.624;17.950;2023-05-20T09:38:05;102822.86;;;23.61;30.46
72909;BME280;61051;62.624;17.950;2023-05-20T09:40:34;102819.45;;;23.55;31.28
72909;BME280;61051;62.624;17.950;2023-05-20T09:43:03;102821.64;;;23.50;30.80
72909;BME280;61051;62.624;17.950;2023-05-20T09:45:32;102821.77;;;23.65;29.41
72909;BME280;61051;62.624;17.950;2023-05-20T09:48:03;102818.53;;;23.21;31.03
72909;BME280;61051;62.624;17.950;2023-05-20T09:50:31;102817.84;;;23.09;30.48
72909;BME280;61051;62.624;17.950;2023-05-20T09:53:02;102818.37;;;23.09;30.65
72909;BME280;61051;62.624;17.950;2023-05-20T09:55:31;102820.60;;;23.15;30.59
72909;BME280;61051;62.624;17.950;2023-05-20T09:58:02;102820.49;;;23.18;30.63
72909;BME280;61051;62.624;17.950;2023-05-20T10:05:20;102819.64;;;23.56;29.92
72909;BME280;61051;62.624;17.950;2023-05-20T10:11:11;102817.37;;;23.18;29.99
72909;BME280;61051;62.624;17.950;2023-05-20T10:13:59;102822.40;;;23.14;29.66
72909;BME280;61051;62.624;17.950;2023-05-20T10:16:42;102823.73;;;23.10;30.21
72909;BME280;61051;62.624;17.950;2023-05-20T10:19:22;102823.38;;;23.73;29.97
72909;BME280;61051;62.624;17.950;2023-05-20T10:21:58;102827.27;;;24.19;28.66
72909;BME280;61051;62.624;17.950;2023-05-20T10:24:30;102828.82;;;24.22;29.68
72909;BME280;61051;62.624;17.950;2023-05-20T10:27:01;102831.83;;;24.50;28.19
72909;BME280;61051;62.624;17.950;2023-05-20T10:29:42;102831.30;;;24.59;27.90
72909;BME280;61051;62.624;17.950;2023-05-20T10:32:11;102829.99;;;24.88;27.23
72909;BME280;61051;62.624;17.950;2023-05-20T10:34:45;102836.67;;;24.35;28.29
72909;BME280;61051;62.624;17.950;2023-05-20T10:37:32;102830.65;;;23.86;28.89
72909;BME280;61051;62.624;17.950;2023-05-20T10:40:05;102826.64;;;23.77;29.59
72909;BME280;61051;62.624;17.950;2023-05-20T10:42:34;102821.88;;;23.83;28.83
72909;BME280;61051;62.624;17.950;2023-05-20T10:45:03;102823.80;;;23.69;29.39
72909;BME280;61051;62.624;17.950;2023-05-20T10:47:33;102825.93;;;23.74;28.73
72909;BME280;61051;62.624;17.950;2023-05-20T10:50:01;102817.15;;;23.84;29.24
72909;BME280;61051;62.624;17.950;2023-05-20T10:52:32;102816.71;;;23.85;28.90
72909;BME280;61051;62.624;17.950;2023-05-20T10:55:03;102816.29;;;23.84;28.63
72909;BME280;61051;62.624;17.950;2023-05-20T10:57:33;102821.37;;;23.85;28.84
72909;BME280;61051;62.624;17.950;2023-05-20T11:00:04;102818.80;;;24.17;29.27
72909;BME280;61051;62.624;17.950;2023-05-20T11:02:33;102816.85;;;24.25;28.42
72909;BME280;61051;62.624;17.950;2023-05-20T11:05:04;102816.24;;;24.41;28.82
72909;BME280;61051;62.624;17.950;2023-05-20T11:07:35;102818.75;;;24.31;27.95
72909;BME280;61051;62.624;17.950;2023-05-20T11:10:07;102817.12;;;24.25;27.66
72909;BME280;61051;62.624;17.950;2023-05-20T11:12:36;102813.02;;;23.81;28.29
72909;BME280;61051;62.624;17.950;2023-05-20T11:15:06;102804.80;;;23.83;28.72
72909;BME280;61051;62.624;17.950;2023-05-20T11:17:36;102800.44;;;24.65;27.52
72909;BME280;61051;62.624;17.950;2023-05-20T11:20:05;102795.09;;;25.93;25.99
72909;BME280;61051;62.624;17.950;2023-05-20T11:22:34;102794.89;;;27.14;24.14
72909;BME280;61051;62.624;17.950;2023-05-20T11:25:04;102797.14;;;27.88;23.23
72909;BME280;61051;62.624;17.950;2023-05-20T11:27:34;102796.35;;;28.20;22.93
72909;BME280;61051;62.624;17.950;2023-05-20T11:30:06;102797.82;;;29.07;22.36
72909;BME280;61051;62.624;17.950;2023-05-20T11:32:35;102790.21;;;29.54;20.84
72909;BME280;61051;62.624;17.950;2023-05-20T11:35:04;102790.13;;;29.92;21.08
72909;BME280;61051;62.624;17.950;2023-05-20T11:37:35;102783.56;;;29.95;21.14
72909;BME280;61051;62.624;17.950;2023-05-20T11:40:06;102793.73;;;29.03;21.37
72909;BME280;61051;62.624;17.950;2023-05-20T11:42:35;102786.66;;;28.61;21.82
72909;BME280;61051;62.624;17.950;2023-05-20T11:45:05;102790.78;;;28.57;21.87
72909;BME280;61051;62.624;17.950;2023-05-20T11:47:34;102786.52;;;28.66;22.22
72909;BME280;61051;62.624;17.950;2023-05-20T11:50:02;102774.02;;;28.75;22.05
72909;BME280;61051;62.624;17.950;2023-05-20T11:52:32;102780.32;;;29.12;21.63
72909;BME280;61051;62.624;17.950;2023-05-20T11:55:02;102772.96;;;28.97;22.27
72909;BME280;61051;62.624;17.950;2023-05-20T11:57:30;102776.71;;;29.20;21.97
72909;BME280;61051;62.624;17.950;2023-05-20T11:59:59;102773.71;;;29.27;21.49
72909;BME280;61051;62.624;17.950;2023-05-20T12:02:28;102773.68;;;29.70;21.76
72909;BME280;61051;62.624;17.950;2023-05-20T12:04:59;102777.44;;;30.90;20.66
72909;BME280;61051;62.624;17.950;2023-05-20T12:07:28;102770.96;;;30.14;20.46
72909;BME280;61051;62.624;17.950;2023-05-20T12:09:56;102771.07;;;29.67;21.01
72909;BME280;61051;62.624;17.950;2023-05-20T12:12:25;102761.89;;;30.24;20.60
72909;BME280;61051;62.624;17.950;2023-05-20T12:14:54;102765.35;;;30.47;20.19
72909;BME280;61051;62.624;17.950;2023-05-20T12:17:22;102767.19;;;30.53;19.97
72909;BME280;61051;62.624;17.950;2023-05-20T12:19:50;102768.19;;;30.33;20.39
72909;BME280;61051;62.624;17.950;2023-05-20T12:22:18;102769.24;;;30.74;20.06
72909;BME280;61051;62.624;17.950;2023-05-20T12:24:46;102775.69;;;30.72;19.73
72909;BME280;61051;62.624;17.950;2023-05-20T12:27:14;102770.01;;;30.01;19.95
72909;BME280;61051;62.624;17.950;2023-05-20T12:29:42;102771.49;;;29.57;20.79
72909;BME280;61051;62.624;17.950;2023-05-20T12:32:10;102775.73;;;29.65;20.82
72909;BME280;61051;62.624;17.950;2023-05-20T12:34:38;102768.77;;;29.97;20.36
72909;BME280;61051;62.624;17.950;2023-05-20T12:37:06;102757.09;;;30.06;20.39
72909;BME280;61051;62.624;17.950;2023-05-20T12:39:34;102757.18;;;30.30;20.10
72909;BME280;61051;62.624;17.950;2023-05-20T12:42:02;102756.72;;;30.25;19.50
72909;BME280;61051;62.624;17.950;2023-05-20T12:44:30;102754.51;;;30.50;19.09
72909;BME280;61051;62.624;17.950;2023-05-20T12:46:59;102755.43;;;30.87;19.46
72909;BME280;61051;62.624;17.950;2023-05-20T12:49:29;102751.11;;;31.57;18.54
72909;BME280;61051;62.624;17.950;2023-05-20T12:51:58;102745.51;;;31.53;18.31
72909;BME280;61051;62.624;17.950;2023-05-20T12:54:26;102750.56;;;32.43;17.88
72909;BME280;61051;62.624;17.950;2023-05-20T12:56:54;102754.10;;;32.43;17.50
72909;BME280;61051;62.624;17.950;2023-05-20T12:59:22;102747.36;;;32.58;17.23
72909;BME280;61051;62.624;17.950;2023-05-20T13:01:51;102746.31;;;32.54;17.14